LiveATC.Net - Listen to live air traffic control over the Internet!


ICAO: S43  IATA: S43   Airport: Harvey Field Airport
City: Snohomish   State/Province: Washington
Country: United States   Continent: North America
KPAE METAR Weather: KPAE 190153Z 14003KT 10SM OVC010 07/06 A3018 RMK AO2 CIG 006V013 SLP222 T00720061
S43 Flight Activity (FlightAware)
S43 Webcam:  (Airport Webcams) 

S43 CTAF
Feed Status: UP   Listeners: 0
Listen in your browser - HTML5 player (in browser, HTML5)
Click here to listen with your own player (launches your MP3 player)
Archive Access: S43 CTAF
FacilityFrequency
Snohomish CTAF123.000

NOTICE

Unauthorized use prohibited. See LiveATC.net Terms of Service


Airport/ARTCC Code
Frequency Search
(e.g., 124.400, 128.75)
Site-wide search
 


Browse Feeds
Top 50 Feeds
HF Oceanic Feeds
Coverage Map
Bad Weather Areas

LiveATC FAQ
Offer LiveATC feed
Contact LiveATC.net
Press Inquiries

LiveATC on iPhone
LiveATC on Android

LiveATC Mobile
(Mobile browser)

ATC Audio Archives
Interesting Recordings

LiveATC Forums


Home Page
About LiveATC.net
Make a Donation
Terms of Use
Privacy Policy

Canadian Air Freqs

AIRMETs/SIGMETs

FAA Airport Status
NAS Status
Arrival Demand


Server Software By:
Icecast.org
Liquidsoap